Details From ENKB - Kvernberget
To ENVA - Vaernes
Flight Number -
Tags Routegen Generated
Created
Modified
Stats Distance 85 nm / 158 km
Max Altitude 500 ft / 152 m
Waypoints 8
Social Downloads 0
Likes 0
Share VATSIM

Download

Looking for another format? Having issues loading an existing format? Contact us
Advertisement - Login to hide

Notes

Departing runway 7 ENKB. Arriving runway 9 ENVA.

Route

ENKB +63.14_+007.99 +63.27_+009.04 +63.45_+010.47 +63.45_+010.50 +63.46_+010.53 +63.46_+010.57 ENVA

ID Type Via Altitude Latitude Longitude Leg Dist Tot Dist Heading (true) Name
O ENKB APT - 0 ft / 0 m 63.11458˚ 7.84231˚ - 0 nm - -
+63.14_+007.99 DME - 500 ft / 152 m 63.13755˚ 7.99412˚ 4 nm 4 nm 71° / 72° -
+63.27_+009.04 DME - 500 ft / 152 m 63.27433˚ 9.04225˚ 29 nm 33 nm 73° / 74° -
+63.45_+010.47 DME - 500 ft / 152 m 63.45060˚ 10.46989˚ 39 nm 73 nm 74° / 75° -
+63.45_+010.50 DME - 500 ft / 152 m 63.45429˚ 10.50121˚ 0 nm 74 nm 75° / 75° -
+63.46_+010.53 DME - 500 ft / 152 m 63.45674˚ 10.53313˚ 0 nm 75 nm 80° / 80° -
+63.46_+010.57 DME - 500 ft / 152 m 63.45794˚ 10.56541˚ 0 nm 76 nm 85° / 85° -
O ENVA APT - 0 ft / 0 m 63.45766˚ 10.88929˚ 8 nm 85 nm 90° / 90° -

Altitude Profile

Advertisement - Login to hide

ENKB

Details ICAO ENKB (KSU)
Name KVERNBERGET
Region Norway
Timezone Europe/Oslo (UTC+1.0)
Stats Elevation 204 ft / 62 m (AMSL)
Location 63.111872° 7.824532°
Runways 1
Magnetic Variation 1.984° E

METAR

ENKB 132220Z AUTO VRB03KT 9999 FEW025/// SCT031/// BKN040/// 00/M02 Q0979 RMK WIND 745FT 13007KT

Decode

TAF

Not found

Departure Runways

ID Width Length Bearing (true) Bearing (mag) Surface Threshold Offset Overrun Length
07 148 ft / 45 m 6,192 ft / 1,887 m 71.39° 69.41° Asphalt 197 ft / 60 m 0 ft / 0 m
25 148 ft / 45 m 6,192 ft / 1,887 m 251.42° 249.44° Asphalt 263 ft / 80 m 0 ft / 0 m

ENVA

Details ICAO ENVA (TRD)
Name Vaernes
Region Norway
Timezone Europe/Oslo (UTC+1.0)
Stats Elevation 56 ft / 17 m (AMSL)
Location 63.457605° 10.917980°
Runways 1
Magnetic Variation 3.494° E

METAR

ENVA 132220Z 12006KT CAVOK M06/M08 Q0981 RMK WIND 670FT 10008KT

Decode

TAF

TAF ENVA 131700Z 1318/1418 10005KT 9999 FEW040

Decode

Destination Runways

ID Width Length Bearing (true) Bearing (mag) Surface Threshold Offset Overrun Length
09 148 ft / 45 m 9,356 ft / 2,852 m 90.21° 86.72° Asphalt 984 ft / 300 m 0 ft / 0 m
27 148 ft / 45 m 9,356 ft / 2,852 m 270.26° 266.77° Asphalt 689 ft / 210 m 0 ft / 0 m

Approach Navaids

Runway Type Ident Frequency Range Bearing (true) Bearing (mag) Slope Elevation
09 Localiser TO 110.30 MHz 18 nm / 33 km 90.26° 86.76° - 31 ft / 9 m (AMSL)
09 Glidescope TO 110.30 MHz 10 nm / 19 km 90.23° 86.74° 3.00° 56 ft / 17 m (AMSL)
09 DME TO 110.30 MHz 18 nm / 33 km - - - 31 ft / 9 m (AMSL)
27 Localiser TD 109.90 MHz 18 nm / 33 km 270.20° 266.71° - 56 ft / 17 m (AMSL)
27 Glidescope TD 109.90 MHz 10 nm / 19 km 270.23° 266.74° 3.40° 56 ft / 17 m (AMSL)
27 DME TD 109.90 MHz 18 nm / 33 km - - - 78 ft / 24 m (AMSL)

Popular Alternatives